sensor_id;sensor_type;location;lat;lon;timestamp;pressure;altitude;pressure_sealevel;temperature;humidity
12211;BME280;6168;42.658;23.298;2022-07-23T04:01:02;64273.84;;;-139.92;100.00
12211;BME280;6168;42.658;23.298;2022-07-23T04:03:29;64275.94;;;-139.92;100.00
12211;BME280;6168;42.658;23.298;2022-07-23T04:05:56;64290.50;;;-139.92;100.00
12211;BME280;6168;42.658;23.298;2022-07-23T04:08:23;64282.19;;;-139.92;100.00
12211;BME280;6168;42.658;23.298;2022-07-23T04:10:50;64325.91;;;-139.92;100.00
12211;BME280;6168;42.658;23.298;2022-07-23T04:13:17;64259.28;;;-139.92;100.00
12211;BME280;6168;42.658;23.298;2022-07-23T04:15:44;64300.94;;;-139.92;100.00
12211;BME280;6168;42.658;23.298;2022-07-23T04:18:13;64269.69;;;-139.92;100.00
12211;BME280;6168;42.658;23.298;2022-07-23T04:20:42;64240.53;;;-139.92;100.00
12211;BME280;6168;42.658;23.298;2022-07-23T04:23:09;64280.09;;;-139.92;100.00
12211;BME280;6168;42.658;23.298;2022-07-23T04:25:36;64267.59;;;-139.92;100.00
12211;BME280;6168;42.658;23.298;2022-07-23T04:28:03;64232.22;;;-139.92;100.00
12211;BME280;6168;42.658;23.298;2022-07-23T04:30:30;64263.44;;;-139.92;100.00
12211;BME280;6168;42.658;23.298;2022-07-23T04:32:57;64230.13;;;-139.92;100.00
12211;BME280;6168;42.658;23.298;2022-07-23T04:35:25;64273.84;;;-139.92;100.00
12211;BME280;6168;42.658;23.298;2022-07-23T04:37:52;64261.34;;;-139.92;100.00
12211;BME280;6168;42.658;23.298;2022-07-23T04:40:19;64263.44;;;-139.92;100.00
12211;BME280;6168;42.658;23.298;2022-07-23T04:42:46;64240.53;;;-139.92;100.00
12211;BME280;6168;42.658;23.298;2022-07-23T04:45:13;64236.38;;;-139.92;100.00
12211;BME280;6168;42.658;23.298;2022-07-23T04:47:40;64278.03;;;-139.92;100.00
12211;BME280;6168;42.658;23.298;2022-07-23T04:50:07;64217.63;;;-139.92;100.00
12211;BME280;6168;42.658;23.298;2022-07-23T04:52:36;64244.69;;;-139.92;100.00
12211;BME280;6168;42.658;23.298;2022-07-23T04:55:03;64234.28;;;-139.92;100.00
12211;BME280;6168;42.658;23.298;2022-07-23T04:57:30;64230.13;;;-139.92;100.00
12211;BME280;6168;42.658;23.298;2022-07-23T04:59:57;64236.38;;;-139.92;100.00
12211;BME280;6168;42.658;23.298;2022-07-23T05:02:24;64223.88;;;-139.92;100.00
12211;BME280;6168;42.658;23.298;2022-07-23T05:04:51;64244.69;;;-139.92;100.00
12211;BME280;6168;42.658;23.298;2022-07-23T05:07:18;64207.22;;;-139.92;100.00
12211;BME280;6168;42.658;23.298;2022-07-23T05:09:46;64217.63;;;-139.92;100.00
12211;BME280;6168;42.658;23.298;2022-07-23T05:12:13;64215.56;;;-139.92;100.00
12211;BME280;6168;42.658;23.298;2022-07-23T05:14:40;64203.06;;;-139.92;100.00
12211;BME280;6168;42.658;23.298;2022-07-23T05:17:07;64188.47;;;-139.92;100.00
12211;BME280;6168;42.658;23.298;2022-07-23T05:19:34;64140.59;;;-139.92;100.00
12211;BME280;6168;42.658;23.298;2022-07-23T05:22:01;64198.88;;;-139.92;100.00
12211;BME280;6168;42.658;23.298;2022-07-23T05:24:28;64186.41;;;-139.92;100.00
12211;BME280;6168;42.658;23.298;2022-07-23T05:26:56;64178.06;;;-139.92;100.00
12211;BME280;6168;42.658;23.298;2022-07-23T05:29:23;64123.94;;;-139.92;100.00
12211;BME280;6168;42.658;23.298;2022-07-23T05:31:50;64167.66;;;-139.92;100.00
12211;BME280;6168;42.658;23.298;2022-07-23T05:34:16;64167.66;;;-139.92;100.00
12211;BME280;6168;42.658;23.298;2022-07-23T05:36:43;64128.09;;;-139.92;100.00
12211;BME280;6168;42.658;23.298;2022-07-23T05:39:10;64165.56;;;-139.92;100.00
12211;BME280;6168;42.658;23.298;2022-07-23T05:41:37;64159.31;;;-139.92;100.00
12211;BME280;6168;42.658;23.298;2022-07-23T05:44:05;64165.56;;;-139.92;100.00
12211;BME280;6168;42.658;23.298;2022-07-23T05:46:32;64165.56;;;-139.92;100.00
12211;BME280;6168;42.658;23.298;2022-07-23T05:48:59;64151.00;;;-139.92;100.00
12211;BME280;6168;42.658;23.298;2022-07-23T05:51:26;64115.59;;;-139.92;100.00
12211;BME280;6168;42.658;23.298;2022-07-23T05:53:53;64136.41;;;-139.92;100.00
12211;BME280;6168;42.658;23.298;2022-07-23T05:56:20;64130.19;;;-139.92;84.29
12211;BME280;6168;42.658;23.298;2022-07-23T05:58:46;64136.41;;;-139.92;79.71
12211;BME280;6168;42.658;23.298;2022-07-23T06:01:15;64138.50;;;-139.92;74.36
12211;BME280;6168;42.658;23.298;2022-07-23T06:03:41;64132.25;;;-139.92;73.44
12211;BME280;6168;42.658;23.298;2022-07-23T06:06:08;64121.84;;;-139.92;73.90
12211;BME280;6168;42.658;23.298;2022-07-23T06:08:35;64082.28;;;-139.92;72.14
12211;BME280;6168;42.658;23.298;2022-07-23T06:11:02;64117.69;;;-139.92;69.77
12211;BME280;6168;42.658;23.298;2022-07-23T06:13:29;64084.38;;;-139.92;69.49
12211;BME280;6168;42.658;23.298;2022-07-23T06:15:56;64080.22;;;-139.92;69.96
12211;BME280;6168;42.658;23.298;2022-07-23T06:18:24;64067.72;;;-139.92;65.20
12211;BME280;6168;42.658;23.298;2022-07-23T06:20:51;64078.13;;;-139.92;63.24
12211;BME280;6168;42.658;23.298;2022-07-23T06:23:18;64092.69;;;-139.92;63.87
12211;BME280;6168;42.658;23.298;2022-07-23T06:25:45;64101.03;;;-139.92;58.44
12211;BME280;6168;42.658;23.298;2022-07-23T06:28:12;64051.06;;;-139.92;60.77
12211;BME280;6168;42.658;23.298;2022-07-23T06:30:39;64057.31;;;-139.92;58.14
12211;BME280;6168;42.658;23.298;2022-07-23T06:33:05;64096.88;;;-139.92;57.00
12211;BME280;6168;42.658;23.298;2022-07-23T06:35:34;64090.63;;;-139.92;56.94
12211;BME280;6168;42.658;23.298;2022-07-23T06:38:01;64061.47;;;-139.92;53.95
12211;BME280;6168;42.658;23.298;2022-07-23T06:40:27;64061.47;;;-139.92;56.13
12211;BME280;6168;42.658;23.298;2022-07-23T06:42:54;64090.63;;;-139.92;57.90
12211;BME280;6168;42.658;23.298;2022-07-23T06:45:21;64082.28;;;-139.92;54.21
12211;BME280;6168;42.658;23.298;2022-07-23T06:47:48;64067.72;;;-139.92;55.24
12211;BME280;6168;42.658;23.298;2022-07-23T06:50:15;64021.91;;;-139.92;55.22
12211;BME280;6168;42.658;23.298;2022-07-23T06:52:44;64069.78;;;-139.92;56.28
12211;BME280;6168;42.658;23.298;2022-07-23T06:55:10;64057.31;;;-139.92;52.77
12211;BME280;6168;42.658;23.298;2022-07-23T06:57:37;64061.47;;;-139.92;55.15
12211;BME280;6168;42.658;23.298;2022-07-23T07:00:05;64011.50;;;-139.92;53.75
12211;BME280;6168;42.658;23.298;2022-07-23T07:02:32;64023.97;;;-139.92;52.34
12211;BME280;6168;42.658;23.298;2022-07-23T07:04:59;64057.31;;;-139.92;49.51
12211;BME280;6168;42.658;23.298;2022-07-23T07:07:26;64061.47;;;-139.92;50.64
12211;BME280;6168;42.658;23.298;2022-07-23T07:09:54;64040.66;;;-139.92;51.18
12211;BME280;6168;42.658;23.298;2022-07-23T07:12:21;64011.50;;;-139.92;53.22
12211;BME280;6168;42.658;23.298;2022-07-23T07:14:48;64046.88;;;-139.92;51.88
12211;BME280;6168;42.658;23.298;2022-07-23T07:17:15;64032.31;;;-139.92;52.10
12211;BME280;6168;42.658;23.298;2022-07-23T07:19:42;64048.97;;;-139.92;52.64
12211;BME280;6168;42.658;23.298;2022-07-23T07:22:09;64044.81;;;-139.92;52.85
12211;BME280;6168;42.658;23.298;2022-07-23T07:24:35;64019.81;;;-139.92;54.76
12211;BME280;6168;42.658;23.298;2022-07-23T07:27:04;64019.81;;;-139.92;50.56
12211;BME280;6168;42.658;23.298;2022-07-23T07:29:31;64017.75;;;-139.92;50.83
12211;BME280;6168;42.658;23.298;2022-07-23T07:31:58;64019.81;;;-139.92;50.15
12211;BME280;6168;42.658;23.298;2022-07-23T07:34:26;64017.75;;;-139.92;53.77
12211;BME280;6168;42.658;23.298;2022-07-23T07:36:53;63999.00;;;-139.92;52.55
12211;BME280;6168;42.658;23.298;2022-07-23T07:39:19;64011.50;;;-139.92;52.08
12211;BME280;6168;42.658;23.298;2022-07-23T07:41:46;63990.66;;;-139.92;50.96
12211;BME280;6168;42.658;23.298;2022-07-23T07:44:15;63999.00;;;-139.92;49.47
12211;BME280;6168;42.658;23.298;2022-07-23T07:46:42;64009.41;;;-139.92;49.88
12211;BME280;6168;42.658;23.298;2022-07-23T07:49:09;63957.34;;;-139.92;52.09
12211;BME280;6168;42.658;23.298;2022-07-23T07:51:35;63988.59;;;-139.92;50.06
12211;BME280;6168;42.658;23.298;2022-07-23T07:54:03;63963.59;;;-139.92;49.18
12211;BME280;6168;42.658;23.298;2022-07-23T07:56:29;63990.66;;;-139.92;47.02
12211;BME280;6168;42.658;23.298;2022-07-23T07:58:56;63938.63;;;-139.92;49.79
12211;BME280;6168;42.658;23.298;2022-07-23T08:01:25;63949.03;;;-139.92;48.77
12211;BME280;6168;42.658;23.298;2022-07-23T08:03:51;63982.34;;;-139.92;47.47
12211;BME280;6168;42.658;23.298;2022-07-23T08:06:18;63967.78;;;-139.92;47.72
12211;BME280;6168;42.658;23.298;2022-07-23T08:08:45;63974.00;;;-139.92;46.68
12211;BME280;6168;42.658;23.298;2022-07-23T08:11:12;63903.22;;;-139.92;47.29
12211;BME280;6168;42.658;23.298;2022-07-23T08:13:39;63944.88;;;-139.92;49.52
12211;BME280;6168;42.658;23.298;2022-07-23T08:16:06;63936.53;;;-139.92;45.80
12211;BME280;6168;42.658;23.298;2022-07-23T08:18:35;63963.59;;;-139.92;44.67
12211;BME280;6168;42.658;23.298;2022-07-23T08:21:02;63942.78;;;-139.92;46.36
12211;BME280;6168;42.658;23.298;2022-07-23T08:23:31;63957.34;;;-139.92;46.71
12211;BME280;6168;42.658;23.298;2022-07-23T08:25:57;63944.88;;;-139.92;47.77
12211;BME280;6168;42.658;23.298;2022-07-23T08:28:25;63928.22;;;-139.92;44.52
12211;BME280;6168;42.658;23.298;2022-07-23T08:30:52;63959.44;;;-139.92;46.53
12211;BME280;6168;42.658;23.298;2022-07-23T08:33:19;63907.38;;;-139.92;46.37
12211;BME280;6168;42.658;23.298;2022-07-23T08:35:49;63930.28;;;-139.92;48.49
12211;BME280;6168;42.658;23.298;2022-07-23T08:38:19;63896.97;;;-139.92;45.84
12211;BME280;6168;42.658;23.298;2022-07-23T08:40:48;63882.41;;;-139.92;44.69
12211;BME280;6168;42.658;23.298;2022-07-23T08:43:16;63901.13;;;-139.92;45.87
12211;BME280;6168;42.658;23.298;2022-07-23T08:45:44;63880.31;;;-139.92;44.38
12211;BME280;6168;42.658;23.298;2022-07-23T08:48:13;63907.38;;;-139.92;42.77
12211;BME280;6168;42.658;23.298;2022-07-23T08:50:43;63901.13;;;-139.92;44.98
12211;BME280;6168;42.658;23.298;2022-07-23T08:53:11;63869.91;;;-139.92;41.82
12211;BME280;6168;42.658;23.298;2022-07-23T08:55:38;63905.31;;;-139.92;40.26
12211;BME280;6168;42.658;23.298;2022-07-23T08:58:05;63872.00;;;-139.92;40.82
12211;BME280;6168;42.658;23.298;2022-07-23T09:00:32;63880.31;;;-139.92;40.53
12211;BME280;6168;42.658;23.298;2022-07-23T09:02:59;63872.00;;;-139.92;39.56
12211;BME280;6168;42.658;23.298;2022-07-23T09:05:26;63869.91;;;-139.92;39.18
12211;BME280;6168;42.658;23.298;2022-07-23T09:08:12;63844.94;;;-139.92;40.45
12211;BME280;6168;42.658;23.298;2022-07-23T09:10:54;63844.94;;;-139.92;38.70
12211;BME280;6168;42.658;23.298;2022-07-23T09:13:26;63886.56;;;-139.92;38.60
12211;BME280;6168;42.658;23.298;2022-07-23T09:15:54;63834.50;;;-139.92;39.82
12211;BME280;6168;42.658;23.298;2022-07-23T09:18:28;63834.50;;;-139.92;39.06
12211;BME280;6168;42.658;23.298;2022-07-23T09:21:06;63867.81;;;-139.92;35.31
12211;BME280;6168;42.658;23.298;2022-07-23T09:23:39;63819.94;;;-139.92;35.70
12211;BME280;6168;42.658;23.298;2022-07-23T09:26:26;63799.13;;;-139.92;37.43
12211;BME280;6168;42.658;23.298;2022-07-23T09:28:57;63797.03;;;-139.92;35.87
12211;BME280;6168;42.658;23.298;2022-07-23T09:31:27;63830.34;;;-139.92;35.73
12211;BME280;6168;42.658;23.298;2022-07-23T09:34:07;63819.94;;;-139.92;36.04
12211;BME280;6168;42.658;23.298;2022-07-23T09:36:33;63794.97;;;-139.92;37.81
12211;BME280;6168;42.658;23.298;2022-07-23T09:39:04;63774.13;;;-139.92;35.23
12211;BME280;6168;42.658;23.298;2022-07-23T09:41:39;63790.78;;;-139.92;32.35
12211;BME280;6168;42.658;23.298;2022-07-23T09:44:11;63782.47;;;-139.92;34.36
12211;BME280;6168;42.658;23.298;2022-07-23T09:46:39;63774.13;;;-139.92;31.54
12211;BME280;6168;42.658;23.298;2022-07-23T09:49:14;63759.56;;;-139.92;32.18
12211;BME280;6168;42.658;23.298;2022-07-23T09:51:47;63780.38;;;-139.92;30.86
12211;BME280;6168;42.658;23.298;2022-07-23T09:54:25;63794.97;;;-139.92;27.50
12211;BME280;6168;42.658;23.298;2022-07-23T09:56:53;63794.97;;;-139.92;28.38
12211;BME280;6168;42.658;23.298;2022-07-23T09:59:24;63780.38;;;-139.92;28.39
12211;BME280;6168;42.658;23.298;2022-07-23T10:01:53;63763.72;;;-139.92;29.85
12211;BME280;6168;42.658;23.298;2022-07-23T10:04:21;63734.56;;;-139.92;28.11
12211;BME280;6168;42.658;23.298;2022-07-23T10:06:51;63736.66;;;-139.92;30.26
12211;BME280;6168;42.658;23.298;2022-07-23T10:09:24;63745.00;;;-139.92;29.96
12211;BME280;6168;42.658;23.298;2022-07-23T10:11:54;63684.59;;;-139.92;28.87
12211;BME280;6168;42.658;23.298;2022-07-23T10:14:24;63732.50;;;-139.92;28.91
12211;BME280;6168;42.658;23.298;2022-07-23T10:16:51;63759.56;;;-139.92;28.90
12211;BME280;6168;42.658;23.298;2022-07-23T10:19:19;63711.69;;;-139.92;28.60
12211;BME280;6168;42.658;23.298;2022-07-23T10:21:48;63720.00;;;-139.92;28.88
12211;BME280;6168;42.658;23.298;2022-07-23T10:24:28;63734.56;;;-139.92;28.41
12211;BME280;6168;42.658;23.298;2022-07-23T10:27:12;63738.75;;;-139.92;28.52
12211;BME280;6168;42.658;23.298;2022-07-23T10:29:50;63692.94;;;-139.92;27.58
12211;BME280;6168;42.658;23.298;2022-07-23T10:32:27;63705.44;;;-139.92;28.45
12211;BME280;6168;42.658;23.298;2022-07-23T10:35:07;63715.84;;;-139.92;27.77
12211;BME280;6168;42.658;23.298;2022-07-23T10:37:39;63703.34;;;-139.92;29.02
12211;BME280;6168;42.658;23.298;2022-07-23T10:40:15;63692.94;;;-139.92;28.71
12211;BME280;6168;42.658;23.298;2022-07-23T10:42:43;63695.03;;;-139.92;27.20
12211;BME280;6168;42.658;23.298;2022-07-23T10:45:28;63697.09;;;-139.92;28.38
12211;BME280;6168;42.658;23.298;2022-07-23T10:48:12;63670.03;;;-139.92;26.89
12211;BME280;6168;42.658;23.298;2022-07-23T10:50:41;63663.78;;;-139.92;26.08
12211;BME280;6168;42.658;23.298;2022-07-23T10:53:14;63615.91;;;-139.92;26.58
12211;BME280;6168;42.658;23.298;2022-07-23T10:55:49;63674.19;;;-139.92;26.84
12211;BME280;6168;42.658;23.298;2022-07-23T10:58:22;63670.03;;;-139.92;25.72
12211;BME280;6168;42.658;23.298;2022-07-23T11:00:50;63661.72;;;-139.92;25.22
12211;BME280;6168;42.658;23.298;2022-07-23T11:03:34;63618.00;;;-139.92;24.08
12211;BME280;6168;42.658;23.298;2022-07-23T11:06:04;63678.38;;;-139.92;24.11
12211;BME280;6168;42.658;23.298;2022-07-23T11:08:32;63618.00;;;-139.92;25.38
12211;BME280;6168;42.658;23.298;2022-07-23T11:11:10;63632.56;;;-139.92;23.62
12211;BME280;6168;42.658;23.298;2022-07-23T11:13:45;63640.88;;;-139.92;24.31
12211;BME280;6168;42.658;23.298;2022-07-23T11:16:21;63611.75;;;-139.92;23.88
12211;BME280;6168;42.658;23.298;2022-07-23T11:19:07;63649.22;;;-139.92;23.53
12211;BME280;6168;42.658;23.298;2022-07-23T11:21:45;63607.59;;;-139.92;23.58
12211;BME280;6168;42.658;23.298;2022-07-23T11:24:14;63632.56;;;-139.92;21.03
12211;BME280;6168;42.658;23.298;2022-07-23T11:26:46;63599.25;;;-139.92;22.43
12211;BME280;6168;42.658;23.298;2022-07-23T11:29:42;63582.59;;;-139.92;21.50
12211;BME280;6168;42.658;23.298;2022-07-23T11:32:31;63636.72;;;-139.92;22.21
12211;BME280;6168;42.658;23.298;2022-07-23T11:35:00;63613.81;;;-139.92;22.82
12211;BME280;6168;42.658;23.298;2022-07-23T11:37:34;63642.97;;;-139.92;21.35
12211;BME280;6168;42.658;23.298;2022-07-23T11:40:04;63618.00;;;-139.92;22.37
12211;BME280;6168;42.658;23.298;2022-07-23T11:42:36;63638.81;;;-139.92;21.07
12211;BME280;6168;42.658;23.298;2022-07-23T11:45:04;63624.22;;;-139.92;22.50
12211;BME280;6168;42.658;23.298;2022-07-23T11:47:32;63615.91;;;-139.92;21.79
12211;BME280;6168;42.658;23.298;2022-07-23T11:50:00;63611.75;;;-139.92;22.57
12211;BME280;6168;42.658;23.298;2022-07-23T11:52:28;63601.34;;;-139.92;21.57
12211;BME280;6168;42.658;23.298;2022-07-23T11:54:57;63620.06;;;-139.92;22.76
12211;BME280;6168;42.658;23.298;2022-07-23T11:57:25;63605.50;;;-139.92;23.00
12211;BME280;6168;42.658;23.298;2022-07-23T11:59:56;63586.75;;;-139.92;22.15
12211;BME280;6168;42.658;23.298;2022-07-23T12:02:23;63576.34;;;-139.92;21.21
12211;BME280;6168;42.658;23.298;2022-07-23T12:04:52;63590.94;;;-139.92;20.09
12211;BME280;6168;42.658;23.298;2022-07-23T12:07:28;63568.03;;;-139.92;21.35
12211;BME280;6168;42.658;23.298;2022-07-23T12:09:56;63547.22;;;-139.92;21.58
12211;BME280;6168;42.658;23.298;2022-07-23T12:12:24;63568.03;;;-139.92;20.34
12211;BME280;6168;42.658;23.298;2022-07-23T12:14:55;63534.72;;;-139.92;19.86
12211;BME280;6168;42.658;23.298;2022-07-23T12:17:27;63532.63;;;-139.92;18.95
12211;BME280;6168;42.658;23.298;2022-07-23T12:19:55;63574.28;;;-139.92;19.38
12211;BME280;6168;42.658;23.298;2022-07-23T12:22:24;63545.13;;;-139.92;20.27
12211;BME280;6168;42.658;23.298;2022-07-23T12:24:58;63597.16;;;-139.92;19.06
12211;BME280;6168;42.658;23.298;2022-07-23T12:27:26;63582.59;;;-139.92;19.94
12211;BME280;6168;42.658;23.298;2022-07-23T12:29:54;63551.38;;;-139.92;20.00
12211;BME280;6168;42.658;23.298;2022-07-23T12:32:24;63551.38;;;-139.92;20.72
12211;BME280;6168;42.658;23.298;2022-07-23T12:35:03;63540.97;;;-139.92;20.32
12211;BME280;6168;42.658;23.298;2022-07-23T12:37:32;63545.13;;;-139.92;20.51
12211;BME280;6168;42.658;23.298;2022-07-23T12:40:24;63557.63;;;-139.92;19.35
12211;BME280;6168;42.658;23.298;2022-07-23T12:42:53;63513.91;;;-139.92;18.86
12211;BME280;6168;42.658;23.298;2022-07-23T12:45:23;63549.28;;;-139.92;19.03
12211;BME280;6168;42.658;23.298;2022-07-23T12:48:02;63547.22;;;-139.92;20.58
12211;BME280;6168;42.658;23.298;2022-07-23T12:50:49;63536.78;;;-139.92;19.85
12211;BME280;6168;42.658;23.298;2022-07-23T12:53:18;63540.97;;;-139.92;19.70
12211;BME280;6168;42.658;23.298;2022-07-23T12:55:46;63520.16;;;-139.92;20.17
12211;BME280;6168;42.658;23.298;2022-07-23T12:58:15;63520.16;;;-139.92;19.89
12211;BME280;6168;42.658;23.298;2022-07-23T13:01:05;63518.06;;;-139.92;18.51
12211;BME280;6168;42.658;23.298;2022-07-23T13:03:34;63482.66;;;-139.92;19.09
12211;BME280;6168;42.658;23.298;2022-07-23T13:06:04;63520.16;;;-139.92;19.50
12211;BME280;6168;42.658;23.298;2022-07-23T13:08:32;63549.28;;;-139.92;19.35
12211;BME280;6168;42.658;23.298;2022-07-23T13:10:59;63528.47;;;-139.92;18.84
12211;BME280;6168;42.658;23.298;2022-07-23T13:13:28;63503.50;;;-139.92;18.61
12211;BME280;6168;42.658;23.298;2022-07-23T13:15:56;63503.50;;;-139.92;18.88
12211;BME280;6168;42.658;23.298;2022-07-23T13:18:25;63493.06;;;-139.92;18.11
12211;BME280;6168;42.658;23.298;2022-07-23T13:20:53;63528.47;;;-139.92;18.53
12211;BME280;6168;42.658;23.298;2022-07-23T13:23:20;63499.31;;;-139.92;18.65
12211;BME280;6168;42.658;23.298;2022-07-23T13:25:48;63478.50;;;-139.92;18.20
12211;BME280;6168;42.658;23.298;2022-07-23T13:28:15;63478.50;;;-139.92;18.77
12211;BME280;6168;42.658;23.298;2022-07-23T13:30:44;63505.56;;;-139.92;18.30
12211;BME280;6168;42.658;23.298;2022-07-23T13:33:11;63505.56;;;-139.92;18.49
12211;BME280;6168;42.658;23.298;2022-07-23T13:35:40;63482.66;;;-139.92;19.93
12211;BME280;6168;42.658;23.298;2022-07-23T13:38:07;63505.56;;;-139.92;18.81
12211;BME280;6168;42.658;23.298;2022-07-23T13:40:35;63513.91;;;-139.92;18.27
12211;BME280;6168;42.658;23.298;2022-07-23T13:43:04;63509.72;;;-139.92;18.53
12211;BME280;6168;42.658;23.298;2022-07-23T13:45:31;63499.31;;;-139.92;18.79
12211;BME280;6168;42.658;23.298;2022-07-23T13:47:57;63497.25;;;-139.92;18.98
12211;BME280;6168;42.658;23.298;2022-07-23T13:50:24;63466.00;;;-139.92;18.88
12211;BME280;6168;42.658;23.298;2022-07-23T13:52:52;63515.97;;;-139.92;20.35
12211;BME280;6168;42.658;23.298;2022-07-23T13:55:19;63447.28;;;-139.92;18.27
12211;BME280;6168;42.658;23.298;2022-07-23T13:57:46;63513.91;;;-139.92;18.46
12211;BME280;6168;42.658;23.298;2022-07-23T14:00:14;63491.00;;;-139.92;18.76
12211;BME280;6168;42.658;23.298;2022-07-23T14:02:41;63520.16;;;-139.92;18.57
12211;BME280;6168;42.658;23.298;2022-07-23T14:05:09;63507.66;;;-139.92;18.82
12211;BME280;6168;42.658;23.298;2022-07-23T14:07:37;63493.06;;;-139.92;18.50
12211;BME280;6168;42.658;23.298;2022-07-23T14:10:07;63505.56;;;-139.92;18.77
12211;BME280;6168;42.658;23.298;2022-07-23T14:12:34;63499.31;;;-139.92;20.29
12211;BME280;6168;42.658;23.298;2022-07-23T14:15:02;63493.06;;;-139.92;19.98
12211;BME280;6168;42.658;23.298;2022-07-23T14:17:29;63499.31;;;-139.92;19.44
12211;BME280;6168;42.658;23.298;2022-07-23T14:19:57;63503.50;;;-139.92;20.92
12211;BME280;6168;42.658;23.298;2022-07-23T14:22:24;63505.56;;;-139.92;19.63
12211;BME280;6168;42.658;23.298;2022-07-23T14:24:51;63507.66;;;-139.92;19.42
12211;BME280;6168;42.658;23.298;2022-07-23T14:27:19;63476.44;;;-139.92;20.13
12211;BME280;6168;42.658;23.298;2022-07-23T14:29:46;63486.84;;;-139.92;19.81
12211;BME280;6168;42.658;23.298;2022-07-23T14:32:13;63497.25;;;-139.92;19.46
12211;BME280;6168;42.658;23.298;2022-07-23T14:34:40;63499.31;;;-139.92;19.54
12211;BME280;6168;42.658;23.298;2022-07-23T14:37:07;63536.78;;;-139.92;19.39
12211;BME280;6168;42.658;23.298;2022-07-23T14:39:33;63524.31;;;-139.92;20.29
12211;BME280;6168;42.658;23.298;2022-07-23T14:42:01;63509.72;;;-139.92;19.71
12211;BME280;6168;42.658;23.298;2022-07-23T14:44:29;63505.56;;;-139.92;20.14
12211;BME280;6168;42.658;23.298;2022-07-23T14:46:56;63528.47;;;-139.92;20.93
12211;BME280;6168;42.658;23.298;2022-07-23T14:49:23;63547.22;;;-139.92;19.89
12211;BME280;6168;42.658;23.298;2022-07-23T14:51:50;63513.91;;;-139.92;21.09
12211;BME280;6168;42.658;23.298;2022-07-23T14:54:16;63518.06;;;-139.92;19.23
12211;BME280;6168;42.658;23.298;2022-07-23T14:56:45;63488.91;;;-139.92;21.07
12211;BME280;6168;42.658;23.298;2022-07-23T14:59:12;63507.66;;;-139.92;20.47
12211;BME280;6168;42.658;23.298;2022-07-23T15:01:40;63522.22;;;-139.92;20.01
12211;BME280;6168;42.658;23.298;2022-07-23T15:04:07;63536.78;;;-139.92;20.65
12211;BME280;6168;42.658;23.298;2022-07-23T15:06:34;63499.31;;;-139.92;20.19
12211;BME280;6168;42.658;23.298;2022-07-23T15:09:01;63536.78;;;-139.92;19.23
12211;BME280;6168;42.658;23.298;2022-07-23T15:11:27;63513.91;;;-139.92;20.67
12211;BME280;6168;42.658;23.298;2022-07-23T15:13:57;63515.97;;;-139.92;19.81
12211;BME280;6168;42.658;23.298;2022-07-23T15:16:24;63495.16;;;-139.92;19.81
12211;BME280;6168;42.658;23.298;2022-07-23T15:18:52;63511.81;;;-139.92;21.81
12211;BME280;6168;42.658;23.298;2022-07-23T15:21:19;63528.47;;;-139.92;21.23
12211;BME280;6168;42.658;23.298;2022-07-23T15:23:46;63515.97;;;-139.92;20.14
12211;BME280;6168;42.658;23.298;2022-07-23T15:27:30;63522.22;;;-139.92;20.20
12211;BME280;6168;42.658;23.298;2022-07-23T15:29:57;63532.63;;;-139.92;20.68
12211;BME280;6168;42.658;23.298;2022-07-23T15:32:24;63574.28;;;-139.92;20.18
12211;BME280;6168;42.658;23.298;2022-07-23T15:34:52;63561.78;;;-139.92;20.37
12211;BME280;6168;42.658;23.298;2022-07-23T15:37:19;63543.03;;;-139.92;21.40
12211;BME280;6168;42.658;23.298;2022-07-23T15:39:46;63559.69;;;-139.92;22.39
12211;BME280;6168;42.658;23.298;2022-07-23T15:42:13;63561.78;;;-139.92;23.20
12211;BME280;6168;42.658;23.298;2022-07-23T15:44:41;63568.03;;;-139.92;23.42
12211;BME280;6168;42.658;23.298;2022-07-23T15:47:11;63563.84;;;-139.92;23.83
12211;BME280;6168;42.658;23.298;2022-07-23T15:49:39;63582.59;;;-139.92;23.85
12211;BME280;6168;42.658;23.298;2022-07-23T15:52:06;63607.59;;;-139.92;24.18
12211;BME280;6168;42.658;23.298;2022-07-23T15:54:53;63618.00;;;-139.92;23.97
12211;BME280;6168;42.658;23.298;2022-07-23T15:57:20;63618.00;;;-139.92;23.41
12211;BME280;6168;42.658;23.298;2022-07-23T15:59:49;63628.41;;;-139.92;23.90
12211;BME280;6168;42.658;23.298;2022-07-23T16:02:16;63609.66;;;-139.92;24.04
12211;BME280;6168;42.658;23.298;2022-07-23T16:04:43;63628.41;;;-139.92;24.14
12211;BME280;6168;42.658;23.298;2022-07-23T16:07:09;63615.91;;;-139.92;23.71
12211;BME280;6168;42.658;23.298;2022-07-23T16:09:37;63611.75;;;-139.92;23.97
12211;BME280;6168;42.658;23.298;2022-07-23T16:12:04;63611.75;;;-139.92;24.61
12211;BME280;6168;42.658;23.298;2022-07-23T16:14:31;63632.56;;;-139.92;24.18
12211;BME280;6168;42.658;23.298;2022-07-23T16:16:59;63628.41;;;-139.92;23.91
12211;BME280;6168;42.658;23.298;2022-07-23T16:19:26;63653.38;;;-139.92;25.00
12211;BME280;6168;42.658;23.298;2022-07-23T16:21:53;63647.13;;;-139.92;25.99
12211;BME280;6168;42.658;23.298;2022-07-23T16:24:20;63680.44;;;-139.92;26.24
12211;BME280;6168;42.658;23.298;2022-07-23T16:26:47;63707.50;;;-139.92;26.55
12211;BME280;6168;42.658;23.298;2022-07-23T16:29:14;63645.06;;;-139.92;27.75
12211;BME280;6168;42.658;23.298;2022-07-23T16:31:41;63651.31;;;-139.92;28.00
12211;BME280;6168;42.658;23.298;2022-07-23T16:34:09;63682.53;;;-139.92;27.38
12211;BME280;6168;42.658;23.298;2022-07-23T16:36:36;63682.53;;;-139.92;27.09
12211;BME280;6168;42.658;23.298;2022-07-23T16:39:03;63682.53;;;-139.92;28.28
12211;BME280;6168;42.658;23.298;2022-07-23T16:41:30;63692.94;;;-139.92;28.72
12211;BME280;6168;42.658;23.298;2022-07-23T16:43:57;63728.34;;;-139.92;29.98
12211;BME280;6168;42.658;23.298;2022-07-23T16:46:24;63720.00;;;-139.92;30.01
12211;BME280;6168;42.658;23.298;2022-07-23T16:48:51;63745.00;;;-139.92;29.78